Time;durP1;ratioP1;P1;durP2;ratioP2;P2;SDS_P1;SDS_P2;PMS_P1;PMS_P2;Temp;Humidity;BMP_temperature;BMP_pressure;BME280_temperature;BME280_humidity;BME280_pressure;Samples;Min_cycle;Max_cycle;Signal;HPM_P1;HPM_P2
2022/01/11 00:01:26;;;;;;;12.90;4.78;;;;;;;;;;5017454;28;20033;-78
2022/01/11 00:03:53;;;;;;;8.77;3.58;;;;;;;;;;5020491;28;20202;-76
2022/01/11 00:08:49;;;;;;;5.70;3.85;;;;;;;;;;5017512;28;20049;-77
2022/01/11 00:11:15;;;;;;;5.30;2.78;;;;;;;;;;5023952;28;20034;-77
2022/01/11 00:13:41;;;;;;;7.80;4.13;;;;;;;;;;5019583;28;20033;-77
2022/01/11 00:16:08;;;;;;;10.38;4.07;;;;;;;;;;5017754;28;20029;-77
2022/01/11 00:18:34;;;;;;;7.13;3.42;;;;;;;;;;5017125;28;20037;-77
2022/01/11 00:21:00;;;;;;;18.15;5.22;;;;;;;;;;5025512;28;20112;-77
2022/01/11 00:25:54;;;;;;;8.73;4.20;;;;;;;;;;5022651;28;20034;-78
2022/01/11 00:28:21;;;;;;;9.55;3.88;;;;;;;;;;5019223;28;20135;-78
2022/01/11 00:30:48;;;;;;;9.70;4.57;;;;;;;;;;5016324;28;20034;-78
2022/01/11 00:33:19;;;;;;;10.90;5.10;;;;;;;;;;5026252;28;20065;-77
2022/01/11 00:35:56;;;;;;;7.28;3.38;;;;;;;;;;5021417;28;20041;-77
2022/01/11 00:38:22;;;;;;;11.25;3.75;;;;;;;;;;5022885;28;20077;-78
2022/01/11 00:40:49;;;;;;;8.15;3.17;;;;;;;;;;5024610;28;20033;-77
2022/01/11 00:43:16;;;;;;;4.97;3.25;;;;;;;;;;5014781;28;20033;-77
2022/01/11 00:45:42;;;;;;;10.63;4.38;;;;;;;;;;5019164;28;20087;-77
2022/01/11 00:48:08;;;;;;;15.93;4.18;;;;;;;;;;5025097;28;20116;-77
2022/01/11 00:50:36;;;;;;;9.65;4.43;;;;;;;;;;5024787;28;20561;-77
2022/01/11 00:53:02;;;;;;;11.48;4.15;;;;;;;;;;5022248;28;20067;-77
2022/01/11 00:55:28;;;;;;;9.25;4.25;;;;;;;;;;5026169;28;20026;-77
2022/01/11 00:57:54;;;;;;;6.90;3.55;;;;;;;;;;5016933;28;20048;-77
2022/01/11 01:00:20;;;;;;;8.98;3.85;;;;;;;;;;5019759;28;20115;-77
2022/01/11 01:02:46;;;;;;;16.13;3.78;;;;;;;;;;5017329;28;20050;-76
2022/01/11 01:05:12;;;;;;;8.38;4.88;;;;;;;;;;5024740;28;20026;-77
2022/01/11 01:07:38;;;;;;;8.73;3.50;;;;;;;;;;5019296;28;20054;-78
2022/01/11 01:10:18;;;;;;;8.82;4.05;;;;;;;;;;5022820;28;20495;-77
2022/01/11 01:12:44;;;;;;;11.43;4.88;;;;;;;;;;5017718;28;20125;-76
2022/01/11 01:15:10;;;;;;;10.75;4.32;;;;;;;;;;5019984;28;20343;-77
2022/01/11 01:17:36;;;;;;;8.23;3.92;;;;;;;;;;5023657;28;20043;-78
2022/01/11 01:20:02;;;;;;;10.50;5.38;;;;;;;;;;5029445;28;20021;-77
2022/01/11 01:22:28;;;;;;;7.72;3.88;;;;;;;;;;5018467;28;20030;-77
2022/01/11 01:24:54;;;;;;;8.77;4.43;;;;;;;;;;5020639;28;20037;-76
2022/01/11 01:27:20;;;;;;;13.18;5.65;;;;;;;;;;5016570;28;20026;-77
2022/01/11 01:29:45;;;;;;;9.15;4.80;;;;;;;;;;5016912;28;20449;-77
2022/01/11 01:32:12;;;;;;;7.88;3.88;;;;;;;;;;5009754;28;20030;-78
2022/01/11 01:34:38;;;;;;;9.93;5.07;;;;;;;;;;5029193;28;20491;-77
2022/01/11 01:37:04;;;;;;;10.35;4.38;;;;;;;;;;5018990;28;20272;-77
2022/01/11 01:39:30;;;;;;;18.95;4.53;;;;;;;;;;5023194;28;20065;-78
2022/01/11 01:41:56;;;;;;;13.90;4.63;;;;;;;;;;5017125;28;20061;-77
2022/01/11 01:44:25;;;;;;;6.60;4.22;;;;;;;;;;5014447;28;20029;-77
2022/01/11 01:46:51;;;;;;;8.20;3.65;;;;;;;;;;5018839;28;20041;-77
2022/01/11 01:49:19;;;;;;;10.18;4.35;;;;;;;;;;5024185;28;20041;-78
2022/01/11 01:51:46;;;;;;;6.07;3.28;;;;;;;;;;5012613;28;20040;-76
2022/01/11 01:54:12;;;;;;;8.05;3.40;;;;;;;;;;5024134;28;20037;-78
2022/01/11 01:56:39;;;;;;;10.95;4.72;;;;;;;;;;5026413;28;20504;-78
2022/01/11 01:59:05;;;;;;;13.20;5.13;;;;;;;;;;5016417;28;20044;-77
2022/01/11 02:01:38;;;;;;;6.28;2.95;;;;;;;;;;5016961;28;20144;-77
2022/01/11 02:04:05;;;;;;;9.30;4.38;;;;;;;;;;5023455;28;20056;-77
2022/01/11 02:06:31;;;;;;;7.80;4.18;;;;;;;;;;5023162;28;20049;-77
2022/01/11 02:08:57;;;;;;;8.98;4.20;;;;;;;;;;5021516;28;20026;-77
2022/01/11 02:11:24;;;;;;;7.40;4.25;;;;;;;;;;5026355;28;20068;-77
2022/01/11 02:13:50;;;;;;;7.80;4.50;;;;;;;;;;5018455;28;20120;-77
2022/01/11 02:16:19;;;;;;;8.13;4.53;;;;;;;;;;5021970;28;20030;-77
2022/01/11 02:18:46;;;;;;;10.07;3.95;;;;;;;;;;5025300;28;20822;-77
2022/01/11 02:21:12;;;;;;;8.98;3.95;;;;;;;;;;5025237;28;20194;-77
2022/01/11 02:23:38;;;;;;;8.45;4.00;;;;;;;;;;5016322;28;20420;-77
2022/01/11 02:26:04;;;;;;;12.13;3.38;;;;;;;;;;5026489;28;20089;-78
2022/01/11 02:28:31;;;;;;;5.15;2.95;;;;;;;;;;5015552;28;20030;-77
2022/01/11 02:30:57;;;;;;;8.07;3.95;;;;;;;;;;5023635;28;20030;-77
2022/01/11 02:33:34;;;;;;;6.93;4.40;;;;;;;;;;5022900;28;20024;-78
2022/01/11 02:36:08;;;;;;;6.72;3.15;;;;;;;;;;5026313;28;20391;-78
2022/01/11 02:38:34;;;;;;;8.63;3.85;;;;;;;;;;5019508;28;20040;-77
2022/01/11 02:41:00;;;;;;;8.35;3.80;;;;;;;;;;5017761;28;20030;-77
2022/01/11 02:43:26;;;;;;;7.72;2.88;;;;;;;;;;5013385;28;20051;-76
2022/01/11 02:45:52;;;;;;;6.68;3.67;;;;;;;;;;5020143;28;20033;-77
2022/01/11 02:48:19;;;;;;;10.95;3.90;;;;;;;;;;5018326;28;20143;-77
2022/01/11 02:50:45;;;;;;;10.27;2.95;;;;;;;;;;5026846;28;20140;-78
2022/01/11 02:53:12;;;;;;;12.93;3.67;;;;;;;;;;5018987;28;20116;-77
2022/01/11 02:55:40;;;;;;;8.57;3.78;;;;;;;;;;5022714;28;20029;-77
2022/01/11 02:58:06;;;;;;;8.93;4.47;;;;;;;;;;5015881;28;20041;-77
2022/01/11 03:00:32;;;;;;;7.60;4.28;;;;;;;;;;5021049;28;20082;-77
2022/01/11 03:03:08;;;;;;;8.75;4.43;;;;;;;;;;5020188;28;20067;-77
2022/01/11 03:05:34;;;;;;;9.32;4.03;;;;;;;;;;5024510;28;20048;-77
2022/01/11 03:08:00;;;;;;;14.02;6.05;;;;;;;;;;5024750;28;20397;-77
2022/01/11 03:10:32;;;;;;;8.75;4.30;;;;;;;;;;5023259;28;20102;-76
2022/01/11 03:13:02;;;;;;;19.10;4.80;;;;;;;;;;5021566;28;20399;-77
2022/01/11 03:15:28;;;;;;;13.07;4.00;;;;;;;;;;5015871;28;20168;-77
2022/01/11 03:17:54;;;;;;;11.05;4.93;;;;;;;;;;5011901;28;20521;-78
2022/01/11 03:20:20;;;;;;;17.13;6.05;;;;;;;;;;5029234;28;20025;-77
2022/01/11 03:22:46;;;;;;;9.07;4.22;;;;;;;;;;5022464;28;20030;-77
2022/01/11 03:25:13;;;;;;;12.60;5.00;;;;;;;;;;5022594;28;20018;-76
2022/01/11 03:27:39;;;;;;;7.35;3.85;;;;;;;;;;5023758;28;20080;-78
2022/01/11 03:30:05;;;;;;;10.77;5.25;;;;;;;;;;5017461;28;20020;-77
2022/01/11 03:32:31;;;;;;;13.38;4.53;;;;;;;;;;5019258;28;20085;-77
2022/01/11 03:34:57;;;;;;;9.55;4.95;;;;;;;;;;5026281;28;20433;-77
2022/01/11 03:37:23;;;;;;;9.38;3.78;;;;;;;;;;5012769;28;20111;-77
2022/01/11 03:39:49;;;;;;;10.00;4.25;;;;;;;;;;5020454;28;20061;-77
2022/01/11 03:42:16;;;;;;;9.25;3.85;;;;;;;;;;5019064;28;20097;-77
2022/01/11 03:44:42;;;;;;;18.30;5.40;;;;;;;;;;5021729;28;20040;-77
2022/01/11 03:47:08;;;;;;;11.45;4.05;;;;;;;;;;5014752;28;20112;-77
2022/01/11 03:49:34;;;;;;;17.98;5.07;;;;;;;;;;5020457;28;20029;-77
2022/01/11 03:52:00;;;;;;;13.68;4.82;;;;;;;;;;5018020;28;20064;-76
2022/01/11 03:54:30;;;;;;;8.27;5.15;;;;;;;;;;5018574;28;20113;-78
2022/01/11 03:56:56;;;;;;;9.98;4.57;;;;;;;;;;5024609;28;20038;-77
2022/01/11 03:59:23;;;;;;;11.23;4.22;;;;;;;;;;5017093;28;20096;-77
2022/01/11 04:01:51;;;;;;;10.52;4.97;;;;;;;;;;5017603;28;20635;-77
2022/01/11 04:04:17;;;;;;;14.27;5.60;;;;;;;;;;5018188;28;20032;-78
2022/01/11 04:06:43;;;;;;;11.55;6.03;;;1.10;99.90;;;;;;5016597;28;20156;-77
2022/01/11 04:09:09;;;;;;;8.60;3.75;;;;;;;;;;5018551;28;20025;-77
2022/01/11 04:11:35;;;;;;;7.18;3.58;;;;;;;;;;5023668;28;20093;-76
2022/01/11 04:14:01;;;;;;;9.50;3.90;;;;;;;;;;5015853;28;20547;-77
2022/01/11 04:16:28;;;;;;;12.32;3.95;;;;;;;;;;5016050;28;20029;-77
2022/01/11 04:18:54;;;;;;;11.77;4.25;;;;;;;;;;5020706;28;20037;-77
2022/01/11 04:21:20;;;;;;;9.50;3.95;;;;;;;;;;5025912;28;20036;-77
2022/01/11 04:23:46;;;;;;;8.48;4.22;;;;;;;;;;5009508;28;20037;-77
2022/01/11 04:26:12;;;;;;;5.15;3.72;;;;;;;;;;5021825;28;20076;-76
2022/01/11 04:28:38;;;;;;;7.80;4.07;;;;;;;;;;5014165;28;20046;-77
2022/01/11 04:31:04;;;;;;;7.05;3.78;;;;;;;;;;5014942;28;20037;-78
2022/01/11 04:33:31;;;;;;;8.13;4.32;;;;;;;;;;5021378;28;20088;-77
2022/01/11 04:35:58;;;;;;;8.30;3.70;;;;;;;;;;5024190;28;20022;-77
2022/01/11 04:38:25;;;;;;;10.25;4.63;;;;;;;;;;5007083;28;20052;-77
2022/01/11 04:40:52;;;;;;;5.93;3.53;;;;;;;;;;5009760;28;20021;-77
2022/01/11 04:43:18;;;;;;;13.02;5.22;;;;;;;;;;5021865;28;20374;-77
2022/01/11 04:45:44;;;;;;;6.43;3.45;;;;;;;;;;5013626;28;20054;-77
2022/01/11 04:48:10;;;;;;;8.07;3.92;;;;;;;;;;5024448;28;20033;-77
2022/01/11 04:50:37;;;;;;;16.33;4.32;;;;;;;;;;5022315;28;20021;-78
2022/01/11 04:53:04;;;;;;;12.35;5.00;;;;;;;;;;5020091;28;20478;-77
2022/01/11 04:55:31;;;;;;;8.88;4.43;;;;;;;;;;5019685;28;20036;-77
2022/01/11 04:57:58;;;;;;;10.98;4.88;;;;;;;;;;5020140;28;20045;-77
2022/01/11 05:00:24;;;;;;;10.05;5.45;;;;;;;;;;5014302;28;20209;-77
2022/01/11 05:02:51;;;;;;;18.38;7.20;;;;;;;;;;5021144;28;20452;-77
2022/01/11 05:05:17;;;;;;;14.80;4.18;;;;;;;;;;5017550;28;20124;-77
2022/01/11 05:07:44;;;;;;;12.25;5.13;;;;;;;;;;5024492;28;20040;-77
2022/01/11 05:10:10;;;;;;;10.07;5.13;;;;;;;;;;5023229;28;20036;-77
2022/01/11 05:12:38;;;;;;;12.82;5.75;;;;;;;;;;5021650;28;20075;-77
2022/01/11 05:15:05;;;;;;;10.90;5.00;;;;;;;;;;5016433;28;20034;-77
2022/01/11 05:17:31;;;;;;;9.35;5.25;;;;;;;;;;5023861;28;20041;-77
2022/01/11 05:19:57;;;;;;;12.15;5.28;;;;;;;;;;5018959;28;20026;-77
2022/01/11 05:22:23;;;;;;;8.48;4.30;;;;;;;;;;5026331;28;20044;-77
2022/01/11 05:24:49;;;;;;;13.82;3.90;;;;;;;;;;5014611;28;20065;-77
2022/01/11 05:27:15;;;;;;;10.45;5.22;;;;;;;;;;5015288;28;20033;-77
2022/01/11 05:29:41;;;;;;;12.10;5.10;;;;;;;;;;5005944;28;20137;-78
2022/01/11 05:32:07;;;;;;;11.35;5.18;;;;;;;;;;5012911;28;20154;-78
2022/01/11 05:34:33;;;;;;;10.73;5.03;;;;;;;;;;5020167;28;20030;-78
2022/01/11 05:36:59;;;;;;;13.95;5.95;;;;;;;;;;5020832;28;20030;-78
2022/01/11 05:39:25;;;;;;;7.38;4.28;;;;;;;;;;5018995;28;20033;-77
2022/01/11 05:41:51;;;;;;;11.88;5.75;;;;;;;;;;5021128;28;20105;-77
2022/01/11 05:44:17;;;;;;;8.15;4.20;;;;;;;;;;5014314;28;20255;-78
2022/01/11 05:46:43;;;;;;;8.23;4.47;;;;;;;;;;5018345;28;20695;-79
2022/01/11 05:49:09;;;;;;;9.75;4.68;;;;;;;;;;5020250;28;20029;-76
2022/01/11 05:51:36;;;;;;;9.57;4.85;;;;;;;;;;5007998;28;20076;-77
2022/01/11 05:54:02;;;;;;;13.23;5.30;;;;;;;;;;5015462;28;20057;-77
2022/01/11 05:56:28;;;;;;;8.50;3.95;;;;;;;;;;5026445;28;20025;-77
2022/01/11 05:58:54;;;;;;;12.52;6.25;;;;;;;;;;5022820;28;20580;-77
2022/01/11 06:01:20;;;;;;;19.58;6.28;;;;;;;;;;5019502;28;20035;-77
2022/01/11 06:03:46;;;;;;;25.80;8.43;;;;;;;;;;5023143;28;20479;-78
2022/01/11 06:06:12;;;;;;;16.85;7.10;;;;;;;;;;5018478;28;20051;-77
2022/01/11 06:08:38;;;;;;;13.00;7.03;;;;;;;;;;5025454;28;20039;-77
2022/01/11 06:11:06;;;;;;;19.30;7.40;;;;;;;;;;5020708;28;20075;-76
2022/01/11 06:13:32;;;;;;;13.02;6.03;;;;;;;;;;5017083;28;20029;-76
2022/01/11 06:15:57;;;;;;;12.95;5.50;;;1.70;99.90;;;;;;5013981;28;21806;-77
2022/01/11 06:18:23;;;;;;;14.75;5.68;;;;;;;;;;5019115;28;20058;-76
2022/01/11 06:20:49;;;;;;;29.42;8.63;;;;;;;;;;5015670;28;20033;-76
2022/01/11 06:23:15;;;;;;;25.23;8.88;;;;;;;;;;5013482;28;20048;-77
2022/01/11 06:25:41;;;;;;;10.25;5.07;;;;;;;;;;5015466;28;20116;-77
2022/01/11 06:28:07;;;;;;;12.00;5.63;;;;;;;;;;5014037;28;20033;-77
2022/01/11 06:30:33;;;;;;;15.93;5.32;;;;;;;;;;5017679;28;20033;-77
2022/01/11 06:32:59;;;;;;;11.90;4.75;;;;;;;;;;5019470;28;20036;-76
2022/01/11 06:35:26;;;;;;;12.63;5.45;;;;;;;;;;5023349;28;20489;-78
2022/01/11 06:37:52;;;;;;;10.45;6.20;;;;;;;;;;5021778;28;20472;-77
2022/01/11 06:40:18;;;;;;;12.02;5.05;;;;;;;;;;5019408;28;20029;-77
2022/01/11 06:42:45;;;;;;;13.98;5.47;;;;;;;;;;5017896;28;20087;-77
2022/01/11 06:45:11;;;;;;;8.57;4.57;;;;;;;;;;5018120;28;20025;-77
2022/01/11 06:47:38;;;;;;;8.82;4.40;;;;;;;;;;5027798;28;20028;-76
2022/01/11 06:50:04;;;;;;;11.10;4.72;;;;;;;;;;5027497;28;20394;-77
2022/01/11 06:52:30;;;;;;;10.60;5.80;;;;;;;;;;5025502;28;20044;-77
2022/01/11 06:54:56;;;;;;;18.65;6.32;;;;;;;;;;5020759;28;20037;-77
2022/01/11 06:57:22;;;;;;;14.75;7.35;;;;;;;;;;5021615;28;20092;-77
2022/01/11 06:59:48;;;;;;;15.57;7.53;;;;;;;;;;5017691;28;20034;-77
2022/01/11 07:02:14;;;;;;;10.02;4.95;;;;;;;;;;5028348;28;20033;-76
2022/01/11 07:04:40;;;;;;;13.43;5.88;;;;;;;;;;5025248;28;20033;-76
2022/01/11 07:07:07;;;;;;;10.07;5.25;;;;;;;;;;5024323;28;20040;-77
2022/01/11 07:09:33;;;;;;;13.88;5.65;;;;;;;;;;5021133;28;20030;-77
2022/01/11 07:11:59;;;;;;;12.25;5.15;;;;;;;;;;5020839;28;20113;-77
2022/01/11 07:14:25;;;;;;;11.32;3.75;;;;;;;;;;5020833;28;20503;-77
2022/01/11 07:16:51;;;;;;;9.73;5.28;;;;;;;;;;5016417;28;20029;-77
2022/01/11 07:19:17;;;;;;;12.13;4.22;;;;;;;;;;5024912;28;20049;-77
2022/01/11 07:21:47;;;;;;;11.23;4.25;;;;;;;;;;5024624;28;20045;-77
2022/01/11 07:24:13;;;;;;;9.50;4.78;;;;;;;;;;5018183;28;20068;-76
2022/01/11 07:26:39;;;;;;;11.60;6.13;;;;;;;;;;5028933;28;20030;-76
2022/01/11 07:29:05;;;;;;;9.82;3.45;;;;;;;;;;5018300;28;20037;-77
2022/01/11 07:31:32;;;;;;;8.68;3.92;;;;;;;;;;5021685;28;20515;-76
2022/01/11 07:33:58;;;;;;;16.08;5.32;;;;;;;;;;5015727;28;20512;-77
2022/01/11 07:36:25;;;;;;;8.85;4.35;;;;;;;;;;5021894;28;20030;-77
2022/01/11 07:38:51;;;;;;;11.55;4.68;;;;;;;;;;5015653;28;20845;-78
2022/01/11 07:41:18;;;;;;;15.50;4.97;;;;;;;;;;5022366;28;20124;-77
2022/01/11 07:43:44;;;;;;;15.05;5.90;;;;;;;;;;5016738;28;20547;-77
2022/01/11 07:46:10;;;;;;;8.32;3.42;;;;;;;;;;5021360;28;20032;-77
2022/01/11 07:48:36;;;;;;;9.82;4.43;;;;;;;;;;5018932;28;20099;-76
2022/01/11 07:51:02;;;;;;;7.43;3.63;;;;;;;;;;5016444;28;20022;-77
2022/01/11 07:53:28;;;;;;;10.90;4.70;;;;;;;;;;5018877;28;20030;-77
2022/01/11 07:55:54;;;;;;;14.45;5.65;;;;;;;;;;5018977;28;20037;-78
2022/01/11 07:58:20;;;;;;;9.88;4.50;;;;;;;;;;5020481;28;20045;-78
2022/01/11 08:00:46;;;;;;;15.07;4.57;;;;;;;;;;5020414;28;20034;-77
2022/01/11 08:03:12;;;;;;;8.02;3.85;;;;;;;;;;5020580;28;20026;-77
2022/01/11 08:05:38;;;;;;;10.18;5.22;;;;;;;;;;5025203;28;20033;-76
2022/01/11 08:08:04;;;;;;;9.18;4.75;;;;;;;;;;5017929;28;20525;-77
2022/01/11 08:10:30;;;;;;;11.60;5.35;;;;;;;;;;5017229;28;20040;-77
2022/01/11 08:12:56;;;;;;;16.55;5.28;;;;;;;;;;5022544;28;20656;-77
2022/01/11 08:15:22;;;;;;;9.45;4.43;;;;;;;;;;5016204;28;20489;-77
2022/01/11 08:17:49;;;;;;;7.75;4.97;;;;;;;;;;5027052;28;20061;-77
2022/01/11 08:20:15;;;;;;;15.25;6.68;;;;;;;;;;5020551;28;20036;-78
2022/01/11 08:22:41;;;;;;;9.90;4.50;;;;;;;;;;5019394;28;20095;-76
2022/01/11 08:25:07;;;;;;;12.38;5.72;;;;;;;;;;5014450;28;20033;-77
2022/01/11 08:27:33;;;;;;;12.73;5.47;;;;;;;;;;5019659;28;20030;-77
2022/01/11 08:30:00;;;;;;;16.85;6.20;;;;;;;;;;5017409;28;20061;-77
2022/01/11 08:32:26;;;;;;;12.60;5.50;;;;;;;;;;5020888;28;20032;-77
2022/01/11 08:34:52;;;;;;;15.80;5.60;;;;;;;;;;5025606;28;20029;-77
2022/01/11 08:37:18;;;;;;;10.40;5.72;;;;;;;;;;5015147;28;20037;-77
2022/01/11 08:39:45;;;;;;;13.57;6.20;;;;;;;;;;5020736;28;20128;-77
2022/01/11 08:42:12;;;;;;;10.30;4.85;;;;;;;;;;5024828;28;20040;-77
2022/01/11 08:44:39;;;;;;;10.23;5.13;;;;;;;;;;5018162;28;20767;-77
2022/01/11 08:47:05;;;;;;;8.15;4.50;;;;;;;;;;5018229;28;20496;-77
2022/01/11 08:49:31;;;;;;;11.05;5.90;;;;;;;;;;5017072;28;20037;-77
2022/01/11 08:51:57;;;;;;;10.95;4.40;;;;;;;;;;5017662;28;20029;-77
2022/01/11 08:54:24;;;;;;;7.10;3.85;;;;;;;;;;5021691;28;20029;-77
2022/01/11 08:56:52;;;;;;;11.60;4.60;;;;;;;;;;5016336;28;20033;-77
2022/01/11 08:59:18;;;;;;;12.02;5.53;;;;;;;;;;5013786;28;20397;-78
2022/01/11 09:01:44;;;;;;;13.75;6.10;;;;;;;;;;5020661;28;20033;-77
2022/01/11 09:04:10;;;;;;;9.13;5.43;;;;;;;;;;5020550;28;20173;-77
2022/01/11 09:06:36;;;;;;;11.02;5.80;;;;;;;;;;5017674;28;20079;-77
2022/01/11 09:09:03;;;;;;;10.00;4.80;;;;;;;;;;5021559;28;20034;-77
2022/01/11 09:11:29;;;;;;;11.27;5.28;;;;;;;;;;5018358;28;20037;-76
2022/01/11 09:13:55;;;;;;;11.82;5.75;;;;;;;;;;5008646;28;20516;-76
2022/01/11 09:16:23;;;;;;;13.52;4.97;;;;;;;;;;5018474;28;20026;-77
2022/01/11 09:18:49;;;;;;;10.93;5.97;;;;;;;;;;5018810;28;20099;-77
2022/01/11 09:21:16;;;;;;;16.75;6.13;;;;;;;;;;5018341;28;20040;-77
2022/01/11 09:23:42;;;;;;;11.63;5.45;;;;;;;;;;5019404;28;20030;-77
2022/01/11 09:26:08;;;;;;;15.95;6.55;;;;;;;;;;5019106;28;20029;-77
2022/01/11 09:28:34;;;;;;;10.13;5.35;;;;;;;;;;5017088;28;20366;-76
2022/01/11 09:31:00;;;;;;;11.93;5.32;;;;;;;;;;5015300;28;20038;-77
2022/01/11 09:33:26;;;;;;;10.73;5.47;;;;;;;;;;5021139;28;20026;-76
2022/01/11 09:35:52;;;;;;;12.73;5.53;;;;;;;;;;5021164;28;20038;-77
2022/01/11 09:38:18;;;;;;;12.90;6.10;;;;;;;;;;5014584;28;20055;-76
2022/01/11 09:40:44;;;;;;;10.38;5.35;;;;;;;;;;5019857;28;20021;-76
2022/01/11 09:43:11;;;;;;;12.95;5.88;;;;;;;;;;5015962;28;20029;-76
2022/01/11 09:45:37;;;;;;;13.20;6.85;;;;;;;;;;5015591;28;20128;-76
2022/01/11 09:48:04;;;;;;;18.52;6.15;;;;;;;;;;5025900;28;20502;-76
2022/01/11 09:50:30;;;;;;;9.63;4.50;;;;;;;;;;5024754;28;22579;-77
2022/01/11 09:52:56;;;;;;;9.95;5.38;;;;;;;;;;5016133;28;20029;-76
2022/01/11 09:55:22;;;;;;;12.20;4.93;;;;;;;;;;5011816;28;20903;-77
2022/01/11 09:57:49;;;;;;;11.45;5.10;;;;;;;;;;5017814;28;20045;-77
2022/01/11 10:00:15;;;;;;;12.15;5.68;;;;;;;;;;5013913;28;20227;-77
2022/01/11 10:02:42;;;;;;;16.17;5.95;;;;;;;;;;5026025;28;20052;-77
2022/01/11 10:05:09;;;;;;;13.20;5.47;;;;;;;;;;5017253;28;20482;-77
2022/01/11 10:07:40;;;;;;;14.20;5.75;;;;;;;;;;5018776;28;20041;-76
2022/01/11 10:10:10;;;;;;;8.57;5.43;;;;;;;;;;5012721;28;20026;-76
2022/01/11 10:12:46;;;;;;;12.07;5.78;;;;;;;;;;5016918;28;20113;-77
2022/01/11 10:15:12;;;;;;;11.23;4.70;;;;;;;;;;5018372;28;20912;-76
2022/01/11 10:17:41;;;;;;;16.42;6.50;;;4.10;99.90;;;;;;5023644;28;20519;-77
2022/01/11 10:20:07;;;;;;;11.13;5.80;;;;;;;;;;5022598;28;20502;-76
2022/01/11 10:22:34;;;;;;;12.13;6.53;;;;;;;;;;5019606;28;20108;-76
2022/01/11 10:25:00;;;;;;;11.93;5.40;;;;;;;;;;5019313;28;20026;-77
2022/01/11 10:27:33;;;;;;;11.68;5.78;;;;;;;;;;5025751;28;20150;-77
2022/01/11 10:29:59;;;;;;;;;;;;;;;;;;5015812;28;20025;-77
2022/01/11 10:32:33;;;;;;;12.90;5.13;;;;;;;;;;5023115;28;20369;-77
2022/01/11 10:35:01;;;;;;;14.63;6.28;;;;;;;;;;5022732;28;20044;-78
2022/01/11 10:37:40;;;;;;;11.82;4.18;;;;;;;;;;5020311;28;20041;-77
2022/01/11 10:40:09;;;;;;;15.90;5.50;;;;;;;;;;5018333;28;20041;-77
2022/01/11 10:42:38;;;;;;;15.77;6.32;;;;;;;;;;5021294;28;20135;-77
2022/01/11 10:45:11;;;;;;;8.07;5.00;;;;;;;;;;5018196;28;20034;-77
2022/01/11 10:47:38;;;;;;;11.85;5.65;;;;;;;;;;5026385;28;20022;-77
2022/01/11 10:50:09;;;;;;;10.40;5.25;;;;;;;;;;5024520;28;20045;-77
2022/01/11 10:52:36;;;;;;;9.10;4.32;;;;;;;;;;5024122;28;20025;-77
2022/01/11 10:55:03;;;;;;;11.50;5.22;;;;;;;;;;5017824;28;20032;-77
2022/01/11 10:57:31;;;;;;;11.02;6.15;;;;;;;;;;5026371;28;20137;-77
2022/01/11 11:00:15;;;;;;;11.73;5.65;;;;;;;;;;5019319;28;20030;-77
2022/01/11 11:02:43;;;;;;;7.97;5.00;;;;;;;;;;5025905;28;20033;-77
2022/01/11 11:05:17;;;;;;;15.73;5.50;;;;;;;;;;5023405;28;20027;-77
2022/01/11 11:07:43;;;;;;;14.45;5.82;;;;;;;;;;5016572;28;20030;-77
2022/01/11 11:10:09;;;;;;;14.43;5.28;;;;;;;;;;5018948;28;20036;-77
2022/01/11 11:12:35;;;;;;;9.25;4.82;;;;;;;;;;5026941;28;20485;-76
2022/01/11 11:15:03;;;;;;;11.98;5.40;;;;;;;;;;5019111;28;20094;-76
2022/01/11 11:17:29;;;;;;;7.75;4.13;;;;;;;;;;5021766;28;20045;-77
2022/01/11 11:20:00;;;;;;;7.32;2.97;;;;;;;;;;5020746;28;20038;-76
2022/01/11 11:22:26;;;;;;;9.77;3.90;;;;;;;;;;5016861;28;20017;-77
2022/01/11 11:24:53;;;;;;;6.28;2.58;;;;;;;;;;5022669;28;20018;-77
2022/01/11 11:27:20;;;;;;;7.55;3.30;;;;;;;;;;4999101;28;20030;-76
2022/01/11 11:29:48;;;;;;;5.95;2.60;;;;;;;;;;5000895;28;20029;-77
2022/01/11 11:32:16;;;;;;;5.30;2.47;;;;;;;;;;5002869;28;20312;-78
2022/01/11 11:34:42;;;;;;;5.15;2.65;;;;;;;;;;5003613;28;20092;-77
2022/01/11 11:37:09;;;;;;;6.85;1.80;;;;;;;;;;5001295;28;20044;-76
2022/01/11 11:39:35;;;;;;;3.13;1.75;;;;;;;;;;5001764;28;20071;-76
2022/01/11 11:42:01;;;;;;;5.38;2.15;;;;;;;;;;5003208;28;20056;-76
2022/01/11 11:44:28;;;;;;;4.68;1.77;;;;;;;;;;5004096;28;20037;-77
2022/01/11 11:46:54;;;;;;;3.80;1.92;;;;;;;;;;5002667;28;20029;-77
2022/01/11 11:49:56;;;;;;;3.88;1.70;;;;;;;;;;5004434;28;20060;-77
2022/01/11 11:52:22;;;;;;;3.58;1.75;;;;;;;;;;5004817;28;20041;-77
2022/01/11 11:54:55;;;;;;;3.40;1.27;;;;;;;;;;5002724;28;20037;-77
2022/01/11 11:57:22;;;;;;;5.25;2.05;;;;;;;;;;5002004;28;20040;-77
2022/01/11 12:00:14;;;;;;;5.13;2.00;;;;;;;;;;4996388;28;20025;-77
2022/01/11 12:02:41;;;;;;;1.90;0.98;;;;;;;;;;5001177;28;20038;-77
2022/01/11 12:05:12;;;;;;;1.27;0.70;;;;;;;;;;5000215;28;20044;-77
2022/01/11 12:07:42;;;;;;;1.73;0.88;;;;;;;;;;5001916;28;20037;-76
2022/01/11 12:10:12;;;;;;;2.45;0.75;;;;;;;;;;4998861;28;20315;-77
2022/01/11 12:12:52;;;;;;;2.65;1.23;;;;;;;;;;5002744;28;20057;-76
2022/01/11 12:15:34;;;;;;;3.85;1.35;;;;;;;;;;5000728;28;20029;-77
2022/01/11 12:18:00;;;;;;;5.28;1.23;;;;;;;;;;5001150;28;22310;-77
2022/01/11 12:20:46;;;;;;;3.72;1.40;;;;;;;;;;5003008;28;20033;-77
2022/01/11 12:23:20;;;;;;;6.88;1.33;;;;;;;;;;4997859;28;20455;-77
2022/01/11 12:25:49;;;;;;;4.95;1.33;;;;;;;;;;4998174;28;20029;-77
2022/01/11 12:28:19;;;;;;;3.28;1.75;;;;;;;;;;5000827;28;20033;-76
2022/01/11 12:30:45;;;;;;;1.63;0.70;;;;;;;;;;5001809;28;20502;-77
2022/01/11 12:33:11;;;;;;;6.75;2.53;;;;;;;;;;5001638;28;20044;-76
2022/01/11 12:35:51;;;;;;;7.15;1.38;;;;;;;;;;5000193;28;20026;-77
2022/01/11 12:38:17;;;;;;;3.15;1.00;;;;;;;;;;5000625;28;20049;-76
2022/01/11 12:40:44;;;;;;;4.00;1.95;;;;;;;;;;4999097;28;20072;-77
2022/01/11 12:43:18;;;;;;;3.08;1.42;;;;;;;;;;5002525;28;20045;-76
2022/01/11 12:45:47;;;;;;;14.23;4.05;;;;;;;;;;4999981;28;20042;-76
2022/01/11 12:48:13;;;;;;;7.82;1.95;;;;;;;;;;5002922;28;20205;-77
2022/01/11 12:51:00;;;;;;;3.63;1.05;;;;;;;;;;5002295;28;20049;-76
2022/01/11 12:53:26;;;;;;;1.15;0.60;;;;;;;;;;5000819;28;20148;-76
2022/01/11 12:55:56;;;;;;;4.25;1.65;;;;;;;;;;4999336;28;20888;-77
2022/01/11 12:58:24;;;;;;;8.13;2.58;;;;;;;;;;5000264;28;20045;-76
2022/01/11 13:00:50;;;;;;;3.50;1.60;;;;;;;;;;5003522;28;20664;-76
2022/01/11 13:03:16;;;;;;;1.92;1.10;;;;;;;;;;5002723;28;20038;-77
2022/01/11 13:05:43;;;;;;;6.90;1.60;;;;;;;;;;4997073;28;20076;-76
2022/01/11 13:08:09;;;;;;;3.25;1.83;;;;;;;;;;4997627;28;20029;-76
2022/01/11 13:10:35;;;;;;;3.38;1.27;;;;;;;;;;4999296;28;20163;-76
2022/01/11 13:13:11;;;;;;;2.50;1.27;;;;;;;;;;4997664;28;20481;-77
2022/01/11 13:15:37;;;;;;;4.55;2.03;;;;;;;;;;4999664;28;20041;-77
2022/01/11 13:18:10;;;;;;;5.55;1.73;;;;;;;;;;4998952;28;20119;-77
2022/01/11 13:20:56;;;;;;;8.35;2.22;;;;;;;;;;4999860;28;20120;-77
2022/01/11 13:23:28;;;;;;;3.95;1.63;;;;;;;;;;5000009;28;20587;-76
2022/01/11 13:25:55;;;;;;;11.43;2.88;;;;;;;;;;5000191;28;20034;-77
2022/01/11 13:28:48;;;;;;;5.00;2.03;;;;;;;;;;4999402;28;21912;-77
2022/01/11 13:31:22;;;;;;;2.90;1.52;;;;;;;;;;4998152;28;20044;-78
2022/01/11 13:33:49;;;;;;;4.18;2.28;;;;;;;;;;4999803;28;20041;-78
2022/01/11 13:36:16;;;;;;;6.10;1.40;;;;;;;;;;5003627;28;20436;-78
2022/01/11 13:38:44;;;;;;;4.05;1.65;;;;;;;;;;5000612;28;21362;-78
2022/01/11 13:41:12;;;;;;;2.28;0.98;;;;;;;;;;4996501;28;20116;-77
2022/01/11 13:43:41;;;;;;;3.58;1.45;;;;;;;;;;4992856;28;20041;-76
2022/01/11 13:46:17;;;;;;;2.28;0.82;;;;;;;;;;4991307;28;20037;-76
2022/01/11 13:48:46;;;;;;;2.63;1.40;;;;;;;;;;4997712;28;20068;-77
2022/01/11 13:51:13;;;;;;;4.15;1.77;;;;;;;;;;4999629;28;20040;-77
2022/01/11 13:53:39;;;;;;;1.90;0.95;;;;;;;;;;4996985;28;20476;-77
2022/01/11 13:56:05;;;;;;;2.17;1.45;;;;;;;;;;4994370;28;20029;-77
2022/01/11 13:58:32;;;;;;;4.10;2.17;;;;;;;;;;4996794;28;20045;-76
2022/01/11 14:00:59;;;;;;;3.20;1.85;;;;;;;;;;4996921;28;20057;-77
2022/01/11 14:03:25;;;;;;;3.08;1.42;;;;;;;;;;5002505;28;20172;-77
2022/01/11 14:05:51;;;;;;;3.80;1.60;;;;;;;;;;5004933;28;20241;-77
2022/01/11 14:08:27;;;;;;;4.32;1.65;;;;;;;;;;5000527;28;20029;-77
2022/01/11 14:11:06;;;;;;;2.28;1.05;;;;;;;;;;5002197;28;20129;-77
2022/01/11 14:13:33;;;;;;;3.47;1.17;;;;;;;;;;5000565;28;20123;-77
2022/01/11 14:15:59;;;;;;;2.63;1.30;;;;;;;;;;5004522;28;20029;-76
2022/01/11 14:18:27;;;;;;;11.20;2.35;;;;;;;;;;5004342;28;20136;-77
2022/01/11 14:21:07;;;;;;;5.07;1.55;;;;;;;;;;5001563;28;20029;-77
2022/01/11 14:23:34;;;;;;;4.88;2.35;;;;;;;;;;4998508;28;20609;-77
2022/01/11 14:26:00;;;;;;;4.07;1.63;;;;;;;;;;5003019;28;20037;-76
2022/01/11 14:28:27;;;;;;;8.50;1.95;;;;;;;;;;5000439;28;20601;-76
2022/01/11 14:30:58;;;;;;;4.28;1.30;;;;;;;;;;4998149;28;20049;-76
2022/01/11 14:33:23;;;;;;;3.85;2.05;;;;;;;;;;4998211;28;20061;-76
2022/01/11 14:36:00;;;;;;;3.30;1.40;;;;;;;;;;4998667;28;20172;-77
2022/01/11 14:38:35;;;;;;;8.27;2.00;;;;;;;;;;5001934;28;20132;-78
2022/01/11 14:41:01;;;;;;;4.57;2.08;;;;;;;;;;4997948;28;20080;-77
2022/01/11 14:43:28;;;;;;;8.65;1.42;;;;;;;;;;4997030;28;21465;-78